sensor_id;sensor_type;location;lat;lon;timestamp;temperature;humidity
27492;DHT22;14927;51.210;6.838;2022-12-10T00:01:17;6.30;61.80
27492;DHT22;14927;51.210;6.838;2022-12-10T00:04:03;6.30;61.80
27492;DHT22;14927;51.210;6.838;2022-12-10T00:06:48;6.30;61.80
27492;DHT22;14927;51.210;6.838;2022-12-10T00:09:33;6.20;61.70
27492;DHT22;14927;51.210;6.838;2022-12-10T00:12:18;6.20;61.80
27492;DHT22;14927;51.210;6.838;2022-12-10T00:15:02;6.20;61.90
27492;DHT22;14927;51.210;6.838;2022-12-10T00:17:47;6.20;61.90
27492;DHT22;14927;51.210;6.838;2022-12-10T00:20:31;6.10;61.80
27492;DHT22;14927;51.210;6.838;2022-12-10T00:23:16;6.10;61.70
27492;DHT22;14927;51.210;6.838;2022-12-10T00:26:10;6.00;61.60
27492;DHT22;14927;51.210;6.838;2022-12-10T00:29:04;5.90;61.50
27492;DHT22;14927;51.210;6.838;2022-12-10T00:31:50;6.00;61.60
27492;DHT22;14927;51.210;6.838;2022-12-10T00:34:34;5.90;61.60
27492;DHT22;14927;51.210;6.838;2022-12-10T00:37:19;5.90;61.80
27492;DHT22;14927;51.210;6.838;2022-12-10T00:40:04;5.80;61.80
27492;DHT22;14927;51.210;6.838;2022-12-10T00:42:48;5.80;62.00
27492;DHT22;14927;51.210;6.838;2022-12-10T00:45:33;5.90;62.20
27492;DHT22;14927;51.210;6.838;2022-12-10T00:48:18;5.80;62.10
27492;DHT22;14927;51.210;6.838;2022-12-10T00:51:05;5.70;62.00
27492;DHT22;14927;51.210;6.838;2022-12-10T00:53:51;5.70;62.00
27492;DHT22;14927;51.210;6.838;2022-12-10T00:56:36;5.70;62.10
27492;DHT22;14927;51.210;6.838;2022-12-10T00:59:20;5.60;62.10
27492;DHT22;14927;51.210;6.838;2022-12-10T01:02:05;5.60;62.10
27492;DHT22;14927;51.210;6.838;2022-12-10T01:04:53;5.60;62.00
27492;DHT22;14927;51.210;6.838;2022-12-10T01:07:38;5.60;62.10
27492;DHT22;14927;51.210;6.838;2022-12-10T01:10:23;5.50;62.10
27492;DHT22;14927;51.210;6.838;2022-12-10T01:13:07;5.50;62.20
27492;DHT22;14927;51.210;6.838;2022-12-10T01:15:52;5.50;62.20
27492;DHT22;14927;51.210;6.838;2022-12-10T01:18:37;5.40;62.10
27492;DHT22;14927;51.210;6.838;2022-12-10T01:21:22;5.40;62.20
27492;DHT22;14927;51.210;6.838;2022-12-10T01:24:08;5.30;62.30
27492;DHT22;14927;51.210;6.838;2022-12-10T01:26:53;5.30;62.30
27492;DHT22;14927;51.210;6.838;2022-12-10T01:29:41;5.40;62.40
27492;DHT22;14927;51.210;6.838;2022-12-10T01:32:26;5.50;62.40
27492;DHT22;14927;51.210;6.838;2022-12-10T01:35:12;5.20;62.30
27492;DHT22;14927;51.210;6.838;2022-12-10T01:37:56;5.20;62.40
27492;DHT22;14927;51.210;6.838;2022-12-10T01:40:41;5.20;62.60
27492;DHT22;14927;51.210;6.838;2022-12-10T01:43:26;5.30;62.80
27492;DHT22;14927;51.210;6.838;2022-12-10T01:46:11;5.10;62.70
27492;DHT22;14927;51.210;6.838;2022-12-10T01:48:57;5.10;62.70
27492;DHT22;14927;51.210;6.838;2022-12-10T01:51:45;5.10;62.70
27492;DHT22;14927;51.210;6.838;2022-12-10T01:54:35;5.10;62.70
27492;DHT22;14927;51.210;6.838;2022-12-10T01:57:28;5.00;62.60
27492;DHT22;14927;51.210;6.838;2022-12-10T02:00:15;5.00;62.60
27492;DHT22;14927;51.210;6.838;2022-12-10T02:03:13;5.00;62.70
27492;DHT22;14927;51.210;6.838;2022-12-10T02:09:43;5.00;62.90
27492;DHT22;14927;51.210;6.838;2022-12-10T02:13:06;4.90;62.90
27492;DHT22;14927;51.210;6.838;2022-12-10T02:16:26;4.90;63.00
27492;DHT22;14927;51.210;6.838;2022-12-10T02:22:50;4.90;63.10
27492;DHT22;14927;51.210;6.838;2022-12-10T02:25:51;4.80;63.10
27492;DHT22;14927;51.210;6.838;2022-12-10T02:31:31;4.90;63.40
27492;DHT22;14927;51.210;6.838;2022-12-10T02:34:17;4.80;63.30
27492;DHT22;14927;51.210;6.838;2022-12-10T02:37:08;4.80;63.30
27492;DHT22;14927;51.210;6.838;2022-12-10T02:39:57;4.80;63.30
27492;DHT22;14927;51.210;6.838;2022-12-10T02:42:46;4.80;63.50
27492;DHT22;14927;51.210;6.838;2022-12-10T02:45:33;4.80;63.50
27492;DHT22;14927;51.210;6.838;2022-12-10T02:48:19;4.80;63.50
27492;DHT22;14927;51.210;6.838;2022-12-10T02:51:03;4.70;63.40
27492;DHT22;14927;51.210;6.838;2022-12-10T02:53:58;4.80;63.50
27492;DHT22;14927;51.210;6.838;2022-12-10T02:56:51;4.80;63.70
27492;DHT22;14927;51.210;6.838;2022-12-10T03:00:01;4.80;63.90
27492;DHT22;14927;51.210;6.838;2022-12-10T03:09:19;4.80;64.60
27492;DHT22;14927;51.210;6.838;2022-12-10T03:12:19;4.80;64.90
27492;DHT22;14927;51.210;6.838;2022-12-10T03:15:10;4.80;65.10
27492;DHT22;14927;51.210;6.838;2022-12-10T03:17:56;4.90;65.00
27492;DHT22;14927;51.210;6.838;2022-12-10T03:20:45;4.90;65.00
27492;DHT22;14927;51.210;6.838;2022-12-10T03:23:33;5.00;64.90
27492;DHT22;14927;51.210;6.838;2022-12-10T03:26:21;5.00;64.80
27492;DHT22;14927;51.210;6.838;2022-12-10T03:29:09;5.00;64.80
27492;DHT22;14927;51.210;6.838;2022-12-10T03:31:58;5.00;64.80
27492;DHT22;14927;51.210;6.838;2022-12-10T03:34:44;5.20;64.80
27492;DHT22;14927;51.210;6.838;2022-12-10T03:37:29;5.10;64.70
27492;DHT22;14927;51.210;6.838;2022-12-10T03:40:14;5.10;64.70
27492;DHT22;14927;51.210;6.838;2022-12-10T03:42:59;5.20;64.70
27492;DHT22;14927;51.210;6.838;2022-12-10T03:45:43;5.10;64.60
27492;DHT22;14927;51.210;6.838;2022-12-10T03:48:28;5.40;64.80
27492;DHT22;14927;51.210;6.838;2022-12-10T03:51:13;5.20;64.80
27492;DHT22;14927;51.210;6.838;2022-12-10T03:53:57;5.20;64.70
27492;DHT22;14927;51.210;6.838;2022-12-10T03:56:42;5.20;64.60
27492;DHT22;14927;51.210;6.838;2022-12-10T03:59:27;5.20;64.50
27492;DHT22;14927;51.210;6.838;2022-12-10T04:02:11;5.20;64.40
27492;DHT22;14927;51.210;6.838;2022-12-10T04:04:58;5.20;64.30
27492;DHT22;14927;51.210;6.838;2022-12-10T04:07:43;5.30;64.30
27492;DHT22;14927;51.210;6.838;2022-12-10T04:10:28;5.30;64.40
27492;DHT22;14927;51.210;6.838;2022-12-10T04:13:12;5.30;64.50
27492;DHT22;14927;51.210;6.838;2022-12-10T04:16:16;5.40;64.60
27492;DHT22;14927;51.210;6.838;2022-12-10T04:19:14;5.30;64.60
27492;DHT22;14927;51.210;6.838;2022-12-10T04:21:59;5.30;64.60
27492;DHT22;14927;51.210;6.838;2022-12-10T04:25:03;5.30;64.70
27492;DHT22;14927;51.210;6.838;2022-12-10T04:28:11;5.40;64.70
27492;DHT22;14927;51.210;6.838;2022-12-10T04:30:55;5.40;64.70
27492;DHT22;14927;51.210;6.838;2022-12-10T04:33:40;5.40;64.70
27492;DHT22;14927;51.210;6.838;2022-12-10T04:36:24;5.60;64.80
27492;DHT22;14927;51.210;6.838;2022-12-10T04:39:09;5.40;65.20
27492;DHT22;14927;51.210;6.838;2022-12-10T04:41:56;5.60;64.80
27492;DHT22;14927;51.210;6.838;2022-12-10T04:44:41;5.50;64.60
27492;DHT22;14927;51.210;6.838;2022-12-10T04:47:25;5.50;64.50
27492;DHT22;14927;51.210;6.838;2022-12-10T04:50:10;5.50;64.50
27492;DHT22;14927;51.210;6.838;2022-12-10T04:52:54;5.50;64.50
27492;DHT22;14927;51.210;6.838;2022-12-10T04:55:39;5.60;64.50
27492;DHT22;14927;51.210;6.838;2022-12-10T04:58:23;5.70;64.50
27492;DHT22;14927;51.210;6.838;2022-12-10T05:01:10;5.60;64.50
27492;DHT22;14927;51.210;6.838;2022-12-10T05:03:57;5.60;64.40
27492;DHT22;14927;51.210;6.838;2022-12-10T05:06:48;5.60;64.30
27492;DHT22;14927;51.210;6.838;2022-12-10T05:10:08;5.50;64.10
27492;DHT22;14927;51.210;6.838;2022-12-10T05:12:52;5.70;64.20
27492;DHT22;14927;51.210;6.838;2022-12-10T05:15:40;5.70;64.00
27492;DHT22;14927;51.210;6.838;2022-12-10T05:18:25;5.70;64.00
27492;DHT22;14927;51.210;6.838;2022-12-10T05:21:14;5.70;63.90
27492;DHT22;14927;51.210;6.838;2022-12-10T05:24:01;5.70;63.70
27492;DHT22;14927;51.210;6.838;2022-12-10T05:26:45;5.80;63.70
27492;DHT22;14927;51.210;6.838;2022-12-10T05:29:32;5.70;63.50
27492;DHT22;14927;51.210;6.838;2022-12-10T05:32:16;5.80;63.50
27492;DHT22;14927;51.210;6.838;2022-12-10T05:35:01;5.80;63.50
27492;DHT22;14927;51.210;6.838;2022-12-10T05:37:46;5.80;63.50
27492;DHT22;14927;51.210;6.838;2022-12-10T05:40:35;5.80;63.50
27492;DHT22;14927;51.210;6.838;2022-12-10T05:43:21;5.90;63.50
27492;DHT22;14927;51.210;6.838;2022-12-10T05:46:08;5.80;63.40
27492;DHT22;14927;51.210;6.838;2022-12-10T05:48:56;5.80;63.40
27492;DHT22;14927;51.210;6.838;2022-12-10T05:51:41;5.80;63.40
27492;DHT22;14927;51.210;6.838;2022-12-10T05:54:25;6.00;63.50
27492;DHT22;14927;51.210;6.838;2022-12-10T05:57:10;5.80;63.30
27492;DHT22;14927;51.210;6.838;2022-12-10T05:59:54;5.80;63.30
27492;DHT22;14927;51.210;6.838;2022-12-10T06:02:39;5.80;63.40
27492;DHT22;14927;51.210;6.838;2022-12-10T06:05:24;5.80;63.40
27492;DHT22;14927;51.210;6.838;2022-12-10T06:08:09;5.80;63.40
27492;DHT22;14927;51.210;6.838;2022-12-10T06:10:53;5.80;63.50
27492;DHT22;14927;51.210;6.838;2022-12-10T06:13:38;5.90;63.50
27492;DHT22;14927;51.210;6.838;2022-12-10T06:16:24;5.90;63.50
27492;DHT22;14927;51.210;6.838;2022-12-10T06:19:10;5.90;63.50
27492;DHT22;14927;51.210;6.838;2022-12-10T06:21:54;5.90;63.50
27492;DHT22;14927;51.210;6.838;2022-12-10T06:24:39;5.90;63.50
27492;DHT22;14927;51.210;6.838;2022-12-10T06:27:24;5.90;63.50
27492;DHT22;14927;51.210;6.838;2022-12-10T06:30:09;5.90;63.50
27492;DHT22;14927;51.210;6.838;2022-12-10T06:32:55;6.00;63.60
27492;DHT22;14927;51.210;6.838;2022-12-10T06:35:39;6.00;63.60
27492;DHT22;14927;51.210;6.838;2022-12-10T06:38:24;6.00;63.60
27492;DHT22;14927;51.210;6.838;2022-12-10T06:41:12;6.20;63.50
27492;DHT22;14927;51.210;6.838;2022-12-10T06:44:01;6.00;63.40
27492;DHT22;14927;51.210;6.838;2022-12-10T06:46:45;6.00;63.30
27492;DHT22;14927;51.210;6.838;2022-12-10T06:49:30;6.00;63.20
27492;DHT22;14927;51.210;6.838;2022-12-10T06:52:15;6.00;63.10
27492;DHT22;14927;51.210;6.838;2022-12-10T06:55:00;6.00;63.00
27492;DHT22;14927;51.210;6.838;2022-12-10T06:57:45;6.00;63.00
27492;DHT22;14927;51.210;6.838;2022-12-10T07:00:29;6.10;63.10
27492;DHT22;14927;51.210;6.838;2022-12-10T07:03:14;6.00;63.00
27492;DHT22;14927;51.210;6.838;2022-12-10T07:06:00;6.10;63.00
27492;DHT22;14927;51.210;6.838;2022-12-10T07:08:45;6.10;62.90
27492;DHT22;14927;51.210;6.838;2022-12-10T07:11:31;6.10;62.90
27492;DHT22;14927;51.210;6.838;2022-12-10T07:14:17;6.10;63.00
27492;DHT22;14927;51.210;6.838;2022-12-10T07:17:02;6.10;62.90
27492;DHT22;14927;51.210;6.838;2022-12-10T07:19:46;6.10;62.80
27492;DHT22;14927;51.210;6.838;2022-12-10T07:22:31;6.10;62.60
27492;DHT22;14927;51.210;6.838;2022-12-10T07:25:15;6.10;63.30
27492;DHT22;14927;51.210;6.838;2022-12-10T07:28:00;6.10;62.30
27492;DHT22;14927;51.210;6.838;2022-12-10T07:30:45;6.10;62.90
27492;DHT22;14927;51.210;6.838;2022-12-10T07:33:29;6.20;62.80
27492;DHT22;14927;51.210;6.838;2022-12-10T07:36:14;6.20;62.00
27492;DHT22;14927;51.210;6.838;2022-12-10T07:38:58;6.10;61.90
27492;DHT22;14927;51.210;6.838;2022-12-10T07:41:46;6.10;61.80
27492;DHT22;14927;51.210;6.838;2022-12-10T07:44:33;6.10;61.70
27492;DHT22;14927;51.210;6.838;2022-12-10T07:47:18;6.20;61.80
27492;DHT22;14927;51.210;6.838;2022-12-10T07:50:04;6.30;61.90
27492;DHT22;14927;51.210;6.838;2022-12-10T07:52:50;6.10;61.70
27492;DHT22;14927;51.210;6.838;2022-12-10T07:55:35;6.10;61.50
27492;DHT22;14927;51.210;6.838;2022-12-10T07:58:19;6.10;61.30
27492;DHT22;14927;51.210;6.838;2022-12-10T08:01:09;6.10;61.20
27492;DHT22;14927;51.210;6.838;2022-12-10T08:03:58;6.10;60.90
27492;DHT22;14927;51.210;6.838;2022-12-10T08:06:44;6.10;60.90
27492;DHT22;14927;51.210;6.838;2022-12-10T08:09:30;6.00;60.80
27492;DHT22;14927;51.210;6.838;2022-12-10T08:12:15;6.00;60.90
27492;DHT22;14927;51.210;6.838;2022-12-10T08:14:59;6.10;61.10
27492;DHT22;14927;51.210;6.838;2022-12-10T08:17:46;6.20;61.20
27492;DHT22;14927;51.210;6.838;2022-12-10T08:20:31;6.00;61.10
27492;DHT22;14927;51.210;6.838;2022-12-10T08:23:15;6.00;61.20
27492;DHT22;14927;51.210;6.838;2022-12-10T08:26:12;6.10;61.20
27492;DHT22;14927;51.210;6.838;2022-12-10T08:28:59;6.00;61.00
27492;DHT22;14927;51.210;6.838;2022-12-10T08:31:44;6.00;61.10
27492;DHT22;14927;51.210;6.838;2022-12-10T08:34:28;5.90;61.00
27492;DHT22;14927;51.210;6.838;2022-12-10T08:37:13;5.90;61.00
27492;DHT22;14927;51.210;6.838;2022-12-10T08:39:59;5.90;61.00
27492;DHT22;14927;51.210;6.838;2022-12-10T08:42:45;5.90;61.10
27492;DHT22;14927;51.210;6.838;2022-12-10T08:45:29;6.00;61.20
27492;DHT22;14927;51.210;6.838;2022-12-10T08:48:15;5.90;61.10
27492;DHT22;14927;51.210;6.838;2022-12-10T08:51:00;5.90;61.10
27492;DHT22;14927;51.210;6.838;2022-12-10T08:53:46;5.90;61.20
27492;DHT22;14927;51.210;6.838;2022-12-10T08:56:30;5.90;61.30
27492;DHT22;14927;51.210;6.838;2022-12-10T08:59:15;5.90;62.00
27492;DHT22;14927;51.210;6.838;2022-12-10T09:02:02;6.00;61.50
27492;DHT22;14927;51.210;6.838;2022-12-10T09:04:50;5.90;61.30
27492;DHT22;14927;51.210;6.838;2022-12-10T09:07:34;5.90;61.40
27492;DHT22;14927;51.210;6.838;2022-12-10T09:10:19;6.10;61.70
27492;DHT22;14927;51.210;6.838;2022-12-10T09:13:07;5.90;61.50
27492;DHT22;14927;51.210;6.838;2022-12-10T09:15:52;5.90;62.20
27492;DHT22;14927;51.210;6.838;2022-12-10T09:18:37;5.90;61.20
27492;DHT22;14927;51.210;6.838;2022-12-10T09:21:21;5.90;61.30
27492;DHT22;14927;51.210;6.838;2022-12-10T09:24:08;5.90;62.20
27492;DHT22;14927;51.210;6.838;2022-12-10T09:26:53;5.90;61.30
27492;DHT22;14927;51.210;6.838;2022-12-10T09:29:37;5.90;61.20
27492;DHT22;14927;51.210;6.838;2022-12-10T09:32:22;5.90;61.10
27492;DHT22;14927;51.210;6.838;2022-12-10T09:35:07;5.90;61.10
27492;DHT22;14927;51.210;6.838;2022-12-10T09:37:51;5.80;61.20
27492;DHT22;14927;51.210;6.838;2022-12-10T09:40:41;5.80;61.40
27492;DHT22;14927;51.210;6.838;2022-12-10T09:49:52;5.90;61.30
27492;DHT22;14927;51.210;6.838;2022-12-10T09:52:45;5.80;61.10
27492;DHT22;14927;51.210;6.838;2022-12-10T09:55:42;5.90;61.10
27492;DHT22;14927;51.210;6.838;2022-12-10T09:58:29;5.80;61.10
27492;DHT22;14927;51.210;6.838;2022-12-10T10:01:17;5.80;61.20
27492;DHT22;14927;51.210;6.838;2022-12-10T10:04:05;5.80;61.10
27492;DHT22;14927;51.210;6.838;2022-12-10T10:06:50;5.90;61.10
27492;DHT22;14927;51.210;6.838;2022-12-10T10:09:38;5.80;61.00
27492;DHT22;14927;51.210;6.838;2022-12-10T10:12:27;5.90;61.10
27492;DHT22;14927;51.210;6.838;2022-12-10T10:15:15;5.90;61.30
27492;DHT22;14927;51.210;6.838;2022-12-10T10:18:33;5.80;61.30
27492;DHT22;14927;51.210;6.838;2022-12-10T10:21:29;5.80;61.40
27492;DHT22;14927;51.210;6.838;2022-12-10T10:24:26;5.80;61.40
27492;DHT22;14927;51.210;6.838;2022-12-10T10:27:24;5.90;61.50
27492;DHT22;14927;51.210;6.838;2022-12-10T10:30:16;5.90;61.50
27492;DHT22;14927;51.210;6.838;2022-12-10T10:33:09;5.90;61.40
27492;DHT22;14927;51.210;6.838;2022-12-10T10:35:56;5.90;61.40
27492;DHT22;14927;51.210;6.838;2022-12-10T10:38:47;5.90;61.30
27492;DHT22;14927;51.210;6.838;2022-12-10T10:41:35;5.90;61.10
27492;DHT22;14927;51.210;6.838;2022-12-10T10:44:36;6.00;61.50
27492;DHT22;14927;51.210;6.838;2022-12-10T10:47:30;6.00;61.20
27492;DHT22;14927;51.210;6.838;2022-12-10T10:50:23;6.00;61.20
27492;DHT22;14927;51.210;6.838;2022-12-10T10:53:23;6.00;61.20
27492;DHT22;14927;51.210;6.838;2022-12-10T10:56:10;6.10;61.20
27492;DHT22;14927;51.210;6.838;2022-12-10T10:59:04;6.10;61.30
27492;DHT22;14927;51.210;6.838;2022-12-10T11:01:52;6.10;61.30
27492;DHT22;14927;51.210;6.838;2022-12-10T11:04:48;6.10;61.30
27492;DHT22;14927;51.210;6.838;2022-12-10T11:07:36;6.10;61.20
27492;DHT22;14927;51.210;6.838;2022-12-10T11:10:24;6.20;61.20
27492;DHT22;14927;51.210;6.838;2022-12-10T11:20:15;6.30;61.00
27492;DHT22;14927;51.210;6.838;2022-12-10T11:23:09;6.30;60.80
27492;DHT22;14927;51.210;6.838;2022-12-10T11:38:43;6.40;59.80
27492;DHT22;14927;51.210;6.838;2022-12-10T11:41:48;6.60;60.30
27492;DHT22;14927;51.210;6.838;2022-12-10T11:45:07;6.50;60.00
27492;DHT22;14927;51.210;6.838;2022-12-10T11:58:08;6.60;59.80
27492;DHT22;14927;51.210;6.838;2022-12-10T12:10:52;6.70;59.40
27492;DHT22;14927;51.210;6.838;2022-12-10T12:14:12;6.70;59.30
27492;DHT22;14927;51.210;6.838;2022-12-10T12:17:21;6.70;59.40
27492;DHT22;14927;51.210;6.838;2022-12-10T12:20:36;6.70;59.50
27492;DHT22;14927;51.210;6.838;2022-12-10T12:26:43;6.80;59.40
27492;DHT22;14927;51.210;6.838;2022-12-10T12:29:43;6.70;59.40
27492;DHT22;14927;51.210;6.838;2022-12-10T12:32:45;6.90;59.50
27492;DHT22;14927;51.210;6.838;2022-12-10T12:35:45;6.70;59.40
27492;DHT22;14927;51.210;6.838;2022-12-10T12:38:48;6.70;59.30
27492;DHT22;14927;51.210;6.838;2022-12-10T12:45:10;6.70;59.90
27492;DHT22;14927;51.210;6.838;2022-12-10T12:48:23;6.70;59.20
27492;DHT22;14927;51.210;6.838;2022-12-10T12:51:23;6.70;59.20
27492;DHT22;14927;51.210;6.838;2022-12-10T12:54:33;6.70;59.30
27492;DHT22;14927;51.210;6.838;2022-12-10T13:00:23;6.70;59.10
27492;DHT22;14927;51.210;6.838;2022-12-10T13:06:24;6.70;59.20
27492;DHT22;14927;51.210;6.838;2022-12-10T13:09:24;6.70;59.30
27492;DHT22;14927;51.210;6.838;2022-12-10T13:12:28;6.70;59.30
27492;DHT22;14927;51.210;6.838;2022-12-10T13:15:41;6.80;59.20
27492;DHT22;14927;51.210;6.838;2022-12-10T13:18:38;6.80;59.10
27492;DHT22;14927;51.210;6.838;2022-12-10T13:21:31;6.80;59.20
27492;DHT22;14927;51.210;6.838;2022-12-10T13:24:19;6.80;59.30
27492;DHT22;14927;51.210;6.838;2022-12-10T13:27:34;6.80;59.50
27492;DHT22;14927;51.210;6.838;2022-12-10T13:30:31;6.80;59.50
27492;DHT22;14927;51.210;6.838;2022-12-10T13:33:21;6.80;59.50
27492;DHT22;14927;51.210;6.838;2022-12-10T13:36:08;7.00;59.60
27492;DHT22;14927;51.210;6.838;2022-12-10T13:48:22;6.90;59.20
27492;DHT22;14927;51.210;6.838;2022-12-10T13:51:31;6.90;59.20
27492;DHT22;14927;51.210;6.838;2022-12-10T13:55:05;6.90;59.20
27492;DHT22;14927;51.210;6.838;2022-12-10T14:05:24;6.90;58.90
27492;DHT22;14927;51.210;6.838;2022-12-10T14:08:34;6.90;58.90
27492;DHT22;14927;51.210;6.838;2022-12-10T14:11:29;6.90;59.00
27492;DHT22;14927;51.210;6.838;2022-12-10T14:14:46;6.90;59.10
27492;DHT22;14927;51.210;6.838;2022-12-10T14:17:42;6.90;59.10
27492;DHT22;14927;51.210;6.838;2022-12-10T14:20:31;6.90;58.90
27492;DHT22;14927;51.210;6.838;2022-12-10T14:23:29;6.90;58.90
27492;DHT22;14927;51.210;6.838;2022-12-10T14:26:20;7.10;59.00
27492;DHT22;14927;51.210;6.838;2022-12-10T14:29:19;6.90;59.00
27492;DHT22;14927;51.210;6.838;2022-12-10T14:32:04;6.90;58.90
27492;DHT22;14927;51.210;6.838;2022-12-10T14:34:54;7.00;59.10
27492;DHT22;14927;51.210;6.838;2022-12-10T14:37:44;7.00;59.10
27492;DHT22;14927;51.210;6.838;2022-12-10T14:40:39;6.90;59.10
27492;DHT22;14927;51.210;6.838;2022-12-10T14:43:35;7.00;59.20
27492;DHT22;14927;51.210;6.838;2022-12-10T14:46:27;7.00;59.20
27492;DHT22;14927;51.210;6.838;2022-12-10T14:49:25;7.00;59.10
27492;DHT22;14927;51.210;6.838;2022-12-10T14:52:23;7.00;59.10
27492;DHT22;14927;51.210;6.838;2022-12-10T14:55:17;7.00;59.10
27492;DHT22;14927;51.210;6.838;2022-12-10T14:58:05;7.00;59.10
27492;DHT22;14927;51.210;6.838;2022-12-10T15:00:55;7.10;59.10
27492;DHT22;14927;51.210;6.838;2022-12-10T15:03:45;7.00;59.10
27492;DHT22;14927;51.210;6.838;2022-12-10T15:06:34;7.00;59.10
27492;DHT22;14927;51.210;6.838;2022-12-10T15:09:22;7.00;59.10
27492;DHT22;14927;51.210;6.838;2022-12-10T15:15:36;7.00;59.00
27492;DHT22;14927;51.210;6.838;2022-12-10T15:22:17;7.00;59.00
27492;DHT22;14927;51.210;6.838;2022-12-10T15:25:28;7.00;59.20
27492;DHT22;14927;51.210;6.838;2022-12-10T15:34:13;7.00;59.20
27492;DHT22;14927;51.210;6.838;2022-12-10T15:37:01;7.00;59.20
27492;DHT22;14927;51.210;6.838;2022-12-10T15:39:52;7.00;59.20
27492;DHT22;14927;51.210;6.838;2022-12-10T15:42:41;7.00;59.20
27492;DHT22;14927;51.210;6.838;2022-12-10T15:45:38;7.00;59.10
27492;DHT22;14927;51.210;6.838;2022-12-10T15:48:28;7.00;59.10
27492;DHT22;14927;51.210;6.838;2022-12-10T15:51:13;7.00;59.10
27492;DHT22;14927;51.210;6.838;2022-12-10T15:53:58;7.00;59.00
27492;DHT22;14927;51.210;6.838;2022-12-10T15:56:43;6.90;59.10
27492;DHT22;14927;51.210;6.838;2022-12-10T15:59:28;6.90;59.10
27492;DHT22;14927;51.210;6.838;2022-12-10T16:05:26;6.90;59.10
27492;DHT22;14927;51.210;6.838;2022-12-10T16:08:24;6.90;59.10
27492;DHT22;14927;51.210;6.838;2022-12-10T16:11:18;6.90;59.00
27492;DHT22;14927;51.210;6.838;2022-12-10T16:14:03;7.00;59.00
27492;DHT22;14927;51.210;6.838;2022-12-10T16:16:50;6.90;59.40
27492;DHT22;14927;51.210;6.838;2022-12-10T16:19:35;6.90;59.20
27492;DHT22;14927;51.210;6.838;2022-12-10T16:22:20;7.00;59.20
27492;DHT22;14927;51.210;6.838;2022-12-10T16:25:05;6.90;59.30
27492;DHT22;14927;51.210;6.838;2022-12-10T16:27:51;6.90;59.30
27492;DHT22;14927;51.210;6.838;2022-12-10T16:30:39;6.90;59.30
27492;DHT22;14927;51.210;6.838;2022-12-10T16:33:28;7.00;59.40
27492;DHT22;14927;51.210;6.838;2022-12-10T16:36:13;6.90;59.50
27492;DHT22;14927;51.210;6.838;2022-12-10T16:38:57;6.90;59.50
27492;DHT22;14927;51.210;6.838;2022-12-10T16:41:42;6.80;59.50
27492;DHT22;14927;51.210;6.838;2022-12-10T16:44:27;6.90;59.70
27492;DHT22;14927;51.210;6.838;2022-12-10T16:47:12;6.80;59.70
27492;DHT22;14927;51.210;6.838;2022-12-10T16:49:57;6.80;59.70
27492;DHT22;14927;51.210;6.838;2022-12-10T16:52:42;6.80;59.70
27492;DHT22;14927;51.210;6.838;2022-12-10T16:55:27;6.80;59.80
27492;DHT22;14927;51.210;6.838;2022-12-10T16:58:13;6.80;59.90
27492;DHT22;14927;51.210;6.838;2022-12-10T17:01:17;6.80;60.70
27492;DHT22;14927;51.210;6.838;2022-12-10T17:04:04;6.80;59.90
27492;DHT22;14927;51.210;6.838;2022-12-10T17:06:49;6.80;59.90
27492;DHT22;14927;51.210;6.838;2022-12-10T17:09:34;6.80;60.00
27492;DHT22;14927;51.210;6.838;2022-12-10T17:12:19;7.00;60.20
27492;DHT22;14927;51.210;6.838;2022-12-10T17:15:05;6.80;60.20
27492;DHT22;14927;51.210;6.838;2022-12-10T17:17:53;6.80;60.40
27492;DHT22;14927;51.210;6.838;2022-12-10T17:20:37;6.80;60.40
27492;DHT22;14927;51.210;6.838;2022-12-10T17:23:22;7.00;60.60
27492;DHT22;14927;51.210;6.838;2022-12-10T17:26:15;7.00;60.60
27492;DHT22;14927;51.210;6.838;2022-12-10T17:29:13;6.80;60.50
27492;DHT22;14927;51.210;6.838;2022-12-10T17:31:58;6.80;60.50
27492;DHT22;14927;51.210;6.838;2022-12-10T17:34:42;6.90;60.50
27492;DHT22;14927;51.210;6.838;2022-12-10T17:37:30;6.90;60.50
27492;DHT22;14927;51.210;6.838;2022-12-10T17:40:18;6.90;60.40
27492;DHT22;14927;51.210;6.838;2022-12-10T17:43:04;6.90;60.30
27492;DHT22;14927;51.210;6.838;2022-12-10T17:45:48;6.90;60.30
27492;DHT22;14927;51.210;6.838;2022-12-10T17:48:33;6.90;61.10
27492;DHT22;14927;51.210;6.838;2022-12-10T17:51:18;6.90;60.30
27492;DHT22;14927;51.210;6.838;2022-12-10T17:54:02;7.00;60.30
27492;DHT22;14927;51.210;6.838;2022-12-10T17:56:50;6.90;60.30
27492;DHT22;14927;51.210;6.838;2022-12-10T17:59:40;6.90;60.30
27492;DHT22;14927;51.210;6.838;2022-12-10T18:02:27;6.90;60.30
27492;DHT22;14927;51.210;6.838;2022-12-10T18:05:12;6.90;60.30
27492;DHT22;14927;51.210;6.838;2022-12-10T18:07:57;6.90;60.30
27492;DHT22;14927;51.210;6.838;2022-12-10T18:10:41;7.10;60.30
27492;DHT22;14927;51.210;6.838;2022-12-10T18:13:26;7.00;60.30
27492;DHT22;14927;51.210;6.838;2022-12-10T18:16:13;7.00;60.30
27492;DHT22;14927;51.210;6.838;2022-12-10T18:19:03;7.10;60.30
27492;DHT22;14927;51.210;6.838;2022-12-10T18:21:50;6.90;60.30
27492;DHT22;14927;51.210;6.838;2022-12-10T18:24:35;7.20;60.40
27492;DHT22;14927;51.210;6.838;2022-12-10T18:27:20;6.90;60.20
27492;DHT22;14927;51.210;6.838;2022-12-10T18:30:06;6.90;60.20
27492;DHT22;14927;51.210;6.838;2022-12-10T18:32:52;6.90;60.20
27492;DHT22;14927;51.210;6.838;2022-12-10T18:35:37;6.90;60.20
27492;DHT22;14927;51.210;6.838;2022-12-10T18:38:21;6.90;60.10
27492;DHT22;14927;51.210;6.838;2022-12-10T18:41:09;6.90;60.30
27492;DHT22;14927;51.210;6.838;2022-12-10T18:43:55;6.90;60.30
27492;DHT22;14927;51.210;6.838;2022-12-10T18:46:40;6.90;60.40
27492;DHT22;14927;51.210;6.838;2022-12-10T18:49:25;6.90;60.40
27492;DHT22;14927;51.210;6.838;2022-12-10T18:52:11;7.00;60.50
27492;DHT22;14927;51.210;6.838;2022-12-10T18:54:56;6.90;60.40
27492;DHT22;14927;51.210;6.838;2022-12-10T18:57:41;7.00;60.50
27492;DHT22;14927;51.210;6.838;2022-12-10T19:00:26;6.90;60.40
27492;DHT22;14927;51.210;6.838;2022-12-10T19:03:10;6.80;60.40
27492;DHT22;14927;51.210;6.838;2022-12-10T19:05:55;6.90;60.50
27492;DHT22;14927;51.210;6.838;2022-12-10T19:08:40;6.80;60.50
27492;DHT22;14927;51.210;6.838;2022-12-10T19:11:26;6.80;60.50
27492;DHT22;14927;51.210;6.838;2022-12-10T19:14:11;7.00;60.70
27492;DHT22;14927;51.210;6.838;2022-12-10T19:16:56;6.80;60.60
27492;DHT22;14927;51.210;6.838;2022-12-10T19:19:42;6.80;60.70
27492;DHT22;14927;51.210;6.838;2022-12-10T19:22:27;6.90;60.70
27492;DHT22;14927;51.210;6.838;2022-12-10T19:25:12;6.80;60.60
27492;DHT22;14927;51.210;6.838;2022-12-10T19:27:57;6.80;60.60
27492;DHT22;14927;51.210;6.838;2022-12-10T19:30:42;6.80;60.60
27492;DHT22;14927;51.210;6.838;2022-12-10T19:33:26;6.80;60.70
27492;DHT22;14927;51.210;6.838;2022-12-10T19:36:31;6.80;60.80
27492;DHT22;14927;51.210;6.838;2022-12-10T19:39:20;6.90;60.90
27492;DHT22;14927;51.210;6.838;2022-12-10T19:42:06;6.80;60.80
27492;DHT22;14927;51.210;6.838;2022-12-10T19:44:50;6.80;60.80
27492;DHT22;14927;51.210;6.838;2022-12-10T19:47:35;6.80;60.80
27492;DHT22;14927;51.210;6.838;2022-12-10T19:50:23;6.80;60.80
27492;DHT22;14927;51.210;6.838;2022-12-10T19:53:10;6.80;60.80